createdAt,value
2018-02-19T00:00:23.163Z,12.23
2018-02-19T00:02:51.510Z,12.30
2018-02-19T00:05:19.858Z,11.82
2018-02-19T00:07:48.258Z,11.35
2018-02-19T00:10:16.601Z,12.82
2018-02-19T00:12:44.926Z,13.30
2018-02-19T00:15:13.270Z,12.00
2018-02-19T00:17:41.674Z,12.57
2018-02-19T00:20:10.050Z,12.13
2018-02-19T00:22:38.417Z,13.82
2018-02-19T00:25:06.794Z,11.70
2018-02-19T00:27:35.113Z,11.55
2018-02-19T00:30:03.458Z,11.52
2018-02-19T00:32:31.787Z,11.60
2018-02-19T00:35:00.206Z,11.95
2018-02-19T00:37:28.582Z,12.25
2018-02-19T00:39:56.910Z,12.73
2018-02-19T00:42:25.338Z,13.00
2018-02-19T00:44:53.662Z,13.85
2018-02-19T00:47:22.006Z,13.50
2018-02-19T00:49:50.325Z,13.10
2018-02-19T00:52:18.673Z,11.80
2018-02-19T00:54:46.998Z,12.43
2018-02-19T00:57:15.347Z,12.63
2018-02-19T00:59:43.774Z,11.30
2018-02-19T01:02:12.154Z,12.63
2018-02-19T01:04:40.482Z,11.70
2018-02-19T01:07:08.826Z,13.38
2018-02-19T01:09:37.154Z,13.38
2018-02-19T01:12:05.522Z,11.75
2018-02-19T01:14:33.849Z,12.40
2018-02-19T01:17:02.214Z,11.70
2018-02-19T01:19:30.582Z,11.60
2018-02-19T01:21:58.930Z,13.30
2018-02-19T01:24:27.332Z,11.88
2018-02-19T01:26:55.712Z,12.50
2018-02-19T01:29:24.037Z,12.68
2018-02-19T01:31:52.469Z,14.07
2018-02-19T01:34:20.788Z,13.43
2018-02-19T01:36:49.134Z,11.43
2018-02-19T01:39:17.458Z,13.05
2018-02-19T01:41:45.810Z,11.15
2018-02-19T01:44:14.149Z,13.05
2018-02-19T01:46:42.497Z,12.65
2018-02-19T01:49:10.906Z,12.32
2018-02-19T01:51:39.246Z,13.68
2018-02-19T01:54:07.574Z,13.70
2018-02-19T01:56:35.913Z,12.98
2018-02-19T01:59:04.242Z,13.10
2018-02-19T02:01:32.584Z,13.73
2018-02-19T02:04:00.962Z,12.30
2018-02-19T02:06:29.310Z,11.90
2018-02-19T02:08:57.637Z,11.77
2018-02-19T02:11:25.981Z,13.27
2018-02-19T02:13:54.301Z,15.02
2018-02-19T02:16:22.754Z,13.45
2018-02-19T02:18:51.124Z,13.30
2018-02-19T02:21:19.470Z,13.25
2018-02-19T02:23:47.793Z,15.93
2018-02-19T02:26:16.154Z,14.13
2018-02-19T02:28:44.478Z,14.63
2018-02-19T02:31:12.832Z,14.25
2018-02-19T02:33:41.187Z,14.45
2018-02-19T02:36:09.530Z,16.42
2018-02-19T02:38:37.939Z,14.25
2018-02-19T02:41:06.259Z,14.30
2018-02-19T02:43:34.598Z,17.15
2018-02-19T02:46:02.970Z,14.48
2018-02-19T02:48:31.350Z,15.88
2018-02-19T02:50:59.675Z,15.68
2018-02-19T02:53:28.025Z,16.37
2018-02-19T02:55:56.347Z,14.75
2018-02-19T02:58:24.754Z,18.00
2018-02-19T03:00:53.083Z,14.63
2018-02-19T03:03:21.433Z,16.00
2018-02-19T03:05:50.070Z,13.80
2018-02-19T03:08:18.470Z,15.02
2018-02-19T03:10:46.805Z,15.13
2018-02-19T03:13:15.151Z,15.10
2018-02-19T03:15:43.499Z,16.10
2018-02-19T03:18:11.842Z,15.20
2018-02-19T03:20:40.255Z,15.15
2018-02-19T03:23:08.634Z,15.23
2018-02-19T03:25:37.005Z,15.75
2018-02-19T03:28:05.349Z,15.10
2018-02-19T03:30:33.762Z,16.40
2018-02-19T03:33:02.194Z,15.32
2018-02-19T03:35:30.536Z,17.55
2018-02-19T03:37:58.846Z,16.27
2018-02-19T03:40:27.269Z,14.93
2018-02-19T03:42:55.613Z,16.10
2018-02-19T03:45:24.025Z,15.68
2018-02-19T03:47:52.367Z,16.67
2018-02-19T03:50:20.690Z,16.40
2018-02-19T03:52:49.054Z,15.40
2018-02-19T03:55:17.377Z,15.93
2018-02-19T03:57:45.726Z,16.95
2018-02-19T04:00:14.082Z,15.80
2018-02-19T04:02:42.427Z,15.50
2018-02-19T04:05:10.761Z,16.75
2018-02-19T04:07:39.113Z,16.17
2018-02-19T04:10:07.438Z,15.93
2018-02-19T04:12:35.869Z,14.80
2018-02-19T04:15:04.250Z,15.40
2018-02-19T04:17:32.643Z,16.95
2018-02-19T04:20:00.998Z,16.55
2018-02-19T04:22:29.342Z,15.43
2018-02-19T04:24:57.666Z,16.45
2018-02-19T04:27:26.009Z,18.10
2018-02-19T04:29:54.405Z,18.23
2018-02-19T04:32:22.755Z,16.85
2018-02-19T04:34:51.082Z,17.10
2018-02-19T04:37:19.538Z,17.77
2018-02-19T04:39:47.887Z,17.00
2018-02-19T04:42:16.316Z,17.33
2018-02-19T04:44:50.178Z,16.70
2018-02-19T04:47:18.578Z,16.92
2018-02-19T04:49:46.906Z,16.15
2018-02-19T04:52:15.231Z,16.62
2018-02-19T04:54:43.577Z,16.67
2018-02-19T04:57:11.898Z,17.02
2018-02-19T04:59:40.242Z,16.30
2018-02-19T05:02:08.566Z,16.17
2018-02-19T05:04:37.013Z,17.55
2018-02-19T05:07:05.334Z,17.90
2018-02-19T05:09:33.677Z,16.90
2018-02-19T05:12:01.998Z,17.30
2018-02-19T05:14:30.349Z,16.35
2018-02-19T05:16:58.670Z,16.15
2018-02-19T05:19:27.019Z,16.80
2018-02-19T05:21:55.344Z,17.73
2018-02-19T05:24:23.693Z,15.70
2018-02-19T05:26:52.009Z,17.27
2018-02-19T05:29:20.359Z,17.40
2018-02-19T05:31:48.681Z,16.60
2018-02-19T05:34:17.030Z,16.45
2018-02-19T05:36:45.362Z,18.15
2018-02-19T05:39:13.711Z,17.27
2018-02-19T05:41:43.901Z,17.20
2018-02-19T05:44:12.262Z,16.90
2018-02-19T05:46:40.846Z,16.73
2018-02-19T05:49:09.460Z,16.17
2018-02-19T05:51:37.794Z,17.63
2018-02-19T05:54:06.148Z,16.80
2018-02-19T05:56:34.481Z,17.83
2018-02-19T05:59:02.830Z,16.73
2018-02-19T06:01:31.158Z,17.87
2018-02-19T06:03:59.519Z,14.87
2018-02-19T06:06:27.852Z,16.93
2018-02-19T06:08:56.202Z,17.20
2018-02-19T06:11:24.585Z,17.85
2018-02-19T06:13:52.914Z,16.17
2018-02-19T06:16:21.329Z,16.55
2018-02-19T06:18:49.685Z,16.00
2018-02-19T06:21:18.018Z,19.30
2018-02-19T06:23:46.379Z,16.47
2018-02-19T06:26:14.698Z,17.83
2018-02-19T06:28:43.046Z,16.40
2018-02-19T06:31:11.375Z,18.77
2018-02-19T06:33:39.727Z,16.80
2018-02-19T06:36:08.050Z,16.30
2018-02-19T06:38:36.402Z,18.00
2018-02-19T06:41:04.778Z,16.97
2018-02-19T06:43:33.124Z,18.00
2018-02-19T06:46:01.456Z,19.83
2018-02-19T06:48:29.797Z,17.23
2018-02-19T06:50:58.130Z,18.47
2018-02-19T06:53:26.537Z,18.13
2018-02-19T06:55:54.862Z,18.27
2018-02-19T06:58:23.185Z,17.07
2018-02-19T07:00:51.534Z,17.90
2018-02-19T07:03:19.867Z,16.20
2018-02-19T07:05:48.222Z,18.02
2018-02-19T07:08:16.546Z,17.50
2018-02-19T07:10:44.895Z,19.98
2018-02-19T07:13:13.222Z,17.73
2018-02-19T07:15:41.575Z,18.48
2018-02-19T07:18:09.898Z,18.50
2018-02-19T07:20:38.252Z,22.08
2018-02-19T07:23:06.573Z,18.37
2018-02-19T07:25:34.922Z,18.98
2018-02-19T07:28:03.251Z,20.05
2018-02-19T07:30:31.594Z,17.52
2018-02-19T07:32:59.917Z,19.87
2018-02-19T07:35:28.262Z,18.58
2018-02-19T07:37:56.586Z,20.20
2018-02-19T07:40:24.935Z,18.05
2018-02-19T07:42:53.267Z,18.70
2018-02-19T07:45:21.618Z,20.42
2018-02-19T07:47:49.941Z,18.85
2018-02-19T07:50:18.321Z,19.92
2018-02-19T07:52:46.617Z,18.42
2018-02-19T07:55:14.975Z,19.98
2018-02-19T07:57:43.312Z,18.67
2018-02-19T08:00:11.703Z,18.63
2018-02-19T08:02:40.027Z,18.12
2018-02-19T08:05:08.378Z,20.80
2018-02-19T08:07:37.178Z,19.67
2018-02-19T08:10:05.533Z,18.07
2018-02-19T08:12:33.941Z,20.57
2018-02-19T08:15:02.342Z,19.23
2018-02-19T08:17:30.692Z,18.97
2018-02-19T08:19:59.062Z,19.65
2018-02-19T08:22:27.495Z,19.73
2018-02-19T08:24:55.912Z,19.03
2018-02-19T08:27:24.225Z,18.13
2018-02-19T08:29:52.574Z,21.12
2018-02-19T08:32:20.906Z,20.13
2018-02-19T08:34:49.254Z,20.13
2018-02-19T08:37:17.586Z,18.37
2018-02-19T08:39:45.939Z,19.70
2018-02-19T08:42:14.270Z,20.40
2018-02-19T08:44:42.622Z,19.20
2018-02-19T08:47:10.954Z,18.90
2018-02-19T08:49:39.306Z,20.33
2018-02-19T08:52:07.639Z,20.08
2018-02-19T08:54:35.966Z,18.96
2018-02-19T08:57:04.318Z,19.57
2018-02-19T08:59:32.663Z,18.83
2018-02-19T09:02:01.001Z,21.20
2018-02-19T09:04:29.334Z,19.53
2018-02-19T09:06:57.681Z,18.33
2018-02-19T09:09:26.006Z,18.83
2018-02-19T09:11:54.358Z,17.33
2018-02-19T09:14:22.685Z,19.20
2018-02-19T09:16:51.037Z,20.00
2018-02-19T09:19:19.374Z,17.50
2018-02-19T09:21:47.718Z,20.10
2018-02-19T09:24:16.050Z,19.70
2018-02-19T09:26:44.407Z,18.47
2018-02-19T09:29:12.745Z,18.53
2018-02-19T09:31:41.099Z,21.92
2018-02-19T09:34:09.422Z,21.63
2018-02-19T09:36:38.161Z,18.07
2018-02-19T09:39:06.490Z,20.43
2018-02-19T09:41:34.846Z,20.70
2018-02-19T09:44:03.179Z,19.87
2018-02-19T09:46:31.522Z,21.10
2018-02-19T09:48:59.858Z,19.50
2018-02-19T09:51:28.218Z,22.10
2018-02-19T09:53:56.546Z,20.93
2018-02-19T09:56:24.979Z,20.60
2018-02-19T09:58:53.306Z,19.67
2018-02-19T10:01:21.663Z,21.03
2018-02-19T10:03:49.991Z,22.20
2018-02-19T10:06:18.342Z,21.80
2018-02-19T10:08:46.674Z,18.67
2018-02-19T10:11:15.026Z,21.15
2018-02-19T10:13:43.354Z,21.27
2018-02-19T10:16:12.706Z,20.34
2018-02-19T10:18:41.038Z,23.07
2018-02-19T10:21:09.385Z,20.10
2018-02-19T10:23:37.711Z,19.60
2018-02-19T10:26:06.063Z,19.17
2018-02-19T10:28:34.386Z,21.50
2018-02-19T10:31:02.738Z,22.30
2018-02-19T10:33:31.070Z,19.73
2018-02-19T10:35:59.526Z,21.97
2018-02-19T10:38:27.860Z,21.10
2018-02-19T10:40:56.202Z,22.30
2018-02-19T10:43:24.542Z,21.87
2018-02-19T10:45:52.886Z,21.17
2018-02-19T10:48:21.219Z,20.50
2018-02-19T10:50:49.574Z,20.58
2018-02-19T10:53:17.898Z,19.93
2018-02-19T10:55:47.159Z,21.25
2018-02-19T10:58:15.488Z,21.87
2018-02-19T11:00:45.544Z,21.10
2018-02-19T11:03:13.902Z,21.37
2018-02-19T11:05:42.234Z,21.23
2018-02-19T11:08:10.646Z,20.17
2018-02-19T11:13:21.299Z,21.20
2018-02-19T11:15:49.585Z,22.47
2018-02-19T11:18:17.934Z,21.20
2018-02-19T11:20:46.267Z,21.10
2018-02-19T11:23:14.618Z,22.37
2018-02-19T11:25:42.946Z,22.43
2018-02-19T11:28:11.394Z,20.50
2018-02-19T11:30:39.723Z,21.43
2018-02-19T11:33:08.069Z,20.47
2018-02-19T11:35:36.398Z,21.47
2018-02-19T11:38:04.747Z,19.47
2018-02-19T11:40:33.079Z,20.03
2018-02-19T11:43:01.427Z,21.20
2018-02-19T11:45:30.338Z,20.67
2018-02-19T11:47:58.694Z,21.13
2018-02-19T11:50:27.019Z,20.57
2018-02-19T11:52:55.421Z,22.08
2018-02-19T11:55:23.698Z,22.07
2018-02-19T11:57:52.046Z,23.50
2018-02-19T12:00:20.379Z,24.03
2018-02-19T12:02:48.729Z,22.70
2018-02-19T12:05:17.154Z,21.30
2018-02-19T12:07:45.502Z,21.33
2018-02-19T12:10:13.830Z,22.10
2018-02-19T12:12:42.184Z,22.73
2018-02-19T12:15:10.510Z,22.13
2018-02-19T12:17:38.867Z,22.83
2018-02-19T12:20:07.294Z,21.20
2018-02-19T12:22:35.642Z,22.07
2018-02-19T12:25:04.886Z,22.27
2018-02-19T12:27:33.238Z,23.47
2018-02-19T12:30:01.574Z,22.47
2018-02-19T12:32:29.934Z,22.60
2018-02-19T12:34:58.262Z,21.50
2018-02-19T12:37:26.656Z,21.67
2018-02-19T12:39:54.983Z,23.05
2018-02-19T12:42:23.325Z,23.17
2018-02-19T12:44:51.663Z,24.10
2018-02-19T12:47:20.011Z,22.50
2018-02-19T12:49:48.346Z,23.43
2018-02-19T12:52:16.699Z,21.73
2018-02-19T12:54:45.027Z,23.60
2018-02-19T12:57:13.383Z,22.23
2018-02-19T12:59:41.706Z,24.53
2018-02-19T13:02:10.052Z,21.27
2018-02-19T13:04:39.334Z,21.87
2018-02-19T13:07:07.699Z,20.90
2018-02-19T13:09:36.030Z,22.93
2018-02-19T13:12:04.390Z,21.97
2018-02-19T13:14:32.726Z,22.52
2018-02-19T13:17:01.078Z,22.90
2018-02-19T13:19:29.459Z,23.48
2018-02-19T13:21:57.886Z,22.60
2018-02-19T13:24:26.318Z,22.50
2018-02-19T13:26:54.650Z,23.55
2018-02-19T13:29:23.070Z,21.70
2018-02-19T13:31:51.458Z,21.73
2018-02-19T13:34:19.811Z,22.02
2018-02-19T13:36:48.134Z,22.73
2018-02-19T13:39:16.487Z,23.23
2018-02-19T13:41:44.851Z,21.23
2018-02-19T13:44:13.697Z,21.90
2018-02-19T13:46:42.022Z,20.43
2018-02-19T13:49:10.394Z,19.43
2018-02-19T13:51:38.770Z,21.25
2018-02-19T13:54:07.147Z,21.70
2018-02-19T13:56:35.569Z,22.00
2018-02-19T13:59:04.006Z,22.15
2018-02-19T14:01:32.330Z,21.63
2018-02-19T14:04:00.766Z,21.93
2018-02-19T14:06:29.134Z,22.73
2018-02-19T14:08:57.522Z,23.07
2018-02-19T14:11:25.856Z,23.23
2018-02-19T14:13:54.206Z,21.35
2018-02-19T14:16:22.634Z,20.55
2018-02-19T14:18:50.982Z,19.93
2018-02-19T14:21:19.758Z,21.12
2018-02-19T14:23:48.182Z,17.70
2018-02-19T14:26:16.505Z,22.23
2018-02-19T14:28:44.854Z,19.70
2018-02-19T14:31:13.221Z,19.10
2018-02-19T14:33:41.602Z,19.50
2018-02-19T14:36:09.974Z,20.25
2018-02-19T14:38:38.325Z,20.15
2018-02-19T14:41:06.653Z,19.23
2018-02-19T14:43:35.006Z,21.47
2018-02-19T14:46:03.338Z,20.20
2018-02-19T14:48:31.685Z,19.90
2018-02-19T14:51:00.138Z,20.40
2018-02-19T14:53:28.529Z,19.33
2018-02-19T14:55:56.858Z,20.77
2018-02-19T14:58:26.032Z,19.70
2018-02-19T15:00:54.347Z,20.20
2018-02-19T15:03:22.692Z,19.03
2018-02-19T15:05:51.905Z,20.37
2018-02-19T15:08:20.242Z,18.50
2018-02-19T15:10:48.566Z,20.10
2018-02-19T15:13:16.919Z,20.27
2018-02-19T15:15:45.242Z,22.55
2018-02-19T15:18:13.574Z,19.90
2018-02-19T15:20:41.918Z,20.67
2018-02-19T15:23:10.246Z,20.70
2018-02-19T15:25:39.084Z,20.92
2018-02-19T15:28:07.405Z,21.73
2018-02-19T15:30:35.940Z,20.70
2018-02-19T15:33:04.282Z,22.37
2018-02-19T15:35:32.630Z,21.50
2018-02-19T15:38:00.958Z,22.83
2018-02-19T15:40:29.419Z,21.30
2018-02-19T15:42:57.789Z,21.37
2018-02-19T15:45:26.734Z,22.10
2018-02-19T15:47:55.989Z,23.10
2018-02-19T15:50:24.359Z,22.35
2018-02-19T15:52:52.739Z,21.50
2018-02-19T15:55:21.094Z,20.85
2018-02-19T15:57:49.427Z,21.80
2018-02-19T16:00:17.784Z,27.20
2018-02-19T16:02:46.110Z,27.30
2018-02-19T16:05:14.514Z,30.50
2018-02-19T16:07:42.851Z,31.70
2018-02-19T16:10:11.208Z,25.40
2018-02-19T16:12:39.547Z,25.73
2018-02-19T16:15:07.900Z,24.33
2018-02-19T16:17:36.302Z,20.83
2018-02-19T16:20:04.666Z,22.20
2018-02-19T16:22:33.173Z,20.97
2018-02-19T16:25:01.814Z,24.83
2018-02-19T16:27:30.237Z,26.47
2018-02-19T16:29:58.599Z,24.10
2018-02-19T16:32:27.129Z,25.90
2018-02-19T16:34:55.590Z,22.90
2018-02-19T16:37:23.906Z,23.40
2018-02-19T16:39:52.318Z,26.23
2018-02-19T16:42:20.690Z,22.93
2018-02-19T16:44:49.066Z,21.50
2018-02-19T16:47:17.390Z,21.30
2018-02-19T16:49:45.764Z,20.47
2018-02-19T16:52:14.098Z,19.87
2018-02-19T16:54:42.468Z,20.93
2018-02-19T16:57:10.798Z,22.27
2018-02-19T16:59:39.151Z,21.70
2018-02-19T17:02:07.487Z,20.05
2018-02-19T17:04:35.880Z,20.23
2018-02-19T17:07:04.210Z,21.90
2018-02-19T17:09:32.638Z,22.10
2018-02-19T17:12:01.014Z,21.33
2018-02-19T17:14:29.358Z,22.33
2018-02-19T17:16:57.970Z,21.07
2018-02-19T17:19:26.345Z,22.48
2018-02-19T17:21:54.670Z,24.03
2018-02-19T17:24:23.090Z,23.70
2018-02-19T17:26:51.434Z,26.13
2018-02-19T17:29:19.770Z,22.37
2018-02-19T17:31:48.180Z,25.17
2018-02-19T17:34:16.493Z,22.83
2018-02-19T17:36:45.454Z,22.77
2018-02-19T17:39:13.786Z,23.77
2018-02-19T17:41:42.142Z,24.17
2018-02-19T17:44:10.496Z,24.17
2018-02-19T17:46:38.878Z,24.07
2018-02-19T17:49:07.202Z,22.85
2018-02-19T17:51:35.654Z,21.40
2018-02-19T17:54:03.986Z,20.07
2018-02-19T17:56:32.414Z,20.60
2018-02-19T17:59:00.789Z,21.17
2018-02-19T18:01:29.146Z,21.23
2018-02-19T18:03:57.546Z,20.80
2018-02-19T18:06:25.926Z,21.60
2018-02-19T18:08:54.253Z,23.80
2018-02-19T18:11:22.651Z,21.67
2018-02-19T18:13:50.978Z,21.30
2018-02-19T18:16:20.337Z,22.10
2018-02-19T18:18:48.663Z,21.47
2018-02-19T18:21:17.109Z,22.33
2018-02-19T18:23:45.446Z,20.63
2018-02-19T18:26:13.786Z,23.07
2018-02-19T18:28:42.138Z,21.10
2018-02-19T18:31:10.493Z,25.80
2018-02-19T18:33:38.821Z,23.93
2018-02-19T18:36:07.434Z,24.83
2018-02-19T18:38:35.847Z,26.57
2018-02-19T18:41:04.198Z,26.30
2018-02-19T18:43:32.706Z,29.77
2018-02-19T18:46:01.054Z,25.65
2018-02-19T18:48:29.396Z,25.90
2018-02-19T18:50:57.742Z,23.20
2018-02-19T18:53:26.074Z,21.70
2018-02-19T18:55:54.490Z,23.10
2018-02-19T18:58:22.862Z,23.70
2018-02-19T19:00:51.222Z,23.07
2018-02-19T19:03:19.559Z,23.23
2018-02-19T19:05:47.936Z,22.10
2018-02-19T19:08:28.253Z,22.52
2018-02-19T19:10:56.632Z,22.70
2018-02-19T19:13:25.046Z,22.05
2018-02-19T19:15:53.409Z,21.70
2018-02-19T19:18:21.738Z,21.83
2018-02-19T19:20:50.090Z,21.50
2018-02-19T19:23:18.519Z,20.70
2018-02-19T19:25:46.874Z,23.37
2018-02-19T19:28:15.206Z,22.80
2018-02-19T19:30:43.550Z,22.80
2018-02-19T19:33:11.882Z,22.00
2018-02-19T19:35:40.247Z,22.62
2018-02-19T19:38:08.596Z,23.10
2018-02-19T19:40:37.394Z,23.08
2018-02-19T19:43:05.753Z,22.00
2018-02-19T19:45:34.086Z,20.53
2018-02-19T19:48:02.443Z,22.50
2018-02-19T19:50:30.770Z,21.93
2018-02-19T19:52:59.128Z,23.83
2018-02-19T19:55:27.455Z,22.73
2018-02-19T19:57:55.801Z,20.47
2018-02-19T20:00:24.155Z,21.80
2018-02-19T20:02:52.538Z,23.17
2018-02-19T20:05:20.866Z,23.07
2018-02-19T20:07:49.210Z,21.60
2018-02-19T20:10:17.537Z,21.00
2018-02-19T20:12:46.005Z,22.00
2018-02-19T20:15:14.439Z,22.67
2018-02-19T20:17:42.813Z,24.40
2018-02-19T20:20:11.742Z,24.33
2018-02-19T20:22:40.099Z,24.53
2018-02-19T20:25:08.426Z,24.07
2018-02-19T20:27:36.835Z,24.27
2018-02-19T20:30:05.216Z,24.27
2018-02-19T20:32:33.602Z,25.93
2018-02-19T20:35:01.944Z,25.07
2018-02-19T20:37:30.320Z,26.00
2018-02-19T20:39:58.656Z,24.97
2018-02-19T20:42:27.050Z,24.83
2018-02-19T20:44:55.374Z,24.13
2018-02-19T20:47:23.727Z,23.73
2018-02-19T20:49:52.847Z,22.63
2018-02-19T20:52:21.205Z,25.70
2018-02-19T20:54:49.856Z,26.70
2018-02-19T20:57:18.266Z,31.23
2018-02-19T20:59:47.554Z,27.57
2018-02-19T21:02:15.937Z,27.00
2018-02-19T21:04:44.285Z,26.27
2018-02-19T21:07:12.717Z,24.93
2018-02-19T21:09:41.361Z,26.00
2018-02-19T21:12:09.780Z,29.00
2018-02-19T21:14:38.135Z,28.73
2018-02-19T21:17:06.505Z,28.37
2018-02-19T21:19:35.172Z,27.97
2018-02-19T21:22:04.337Z,27.07
2018-02-19T21:24:32.683Z,27.57
2018-02-19T21:27:01.039Z,28.50
2018-02-19T21:29:29.417Z,28.43
2018-02-19T21:31:57.814Z,28.23
2018-02-19T21:34:26.139Z,27.17
2018-02-19T21:36:54.613Z,28.70
2018-02-19T21:39:22.929Z,28.13
2018-02-19T21:41:52.218Z,28.90
2018-02-19T21:44:20.618Z,28.30
2018-02-19T21:46:48.962Z,28.20
2018-02-19T21:49:17.322Z,28.20
2018-02-19T21:51:45.822Z,25.88
2018-02-19T21:54:14.232Z,27.23
2018-02-19T21:56:43.122Z,27.07
2018-02-19T21:59:12.319Z,26.27
2018-02-19T22:01:40.650Z,28.00
2018-02-19T22:04:09.002Z,29.77
2018-02-19T22:06:37.363Z,30.77
2018-02-19T22:09:08.897Z,29.15
2018-02-19T22:11:37.234Z,29.90
2018-02-19T22:14:05.799Z,29.20
2018-02-19T22:16:34.137Z,28.17
2018-02-19T22:19:02.502Z,28.73
2018-02-19T22:21:30.880Z,29.80
2018-02-19T22:23:59.259Z,29.12
2018-02-19T22:26:27.650Z,28.77
2018-02-19T22:28:56.008Z,26.03
2018-02-19T22:31:24.331Z,28.65
2018-02-19T22:33:52.682Z,29.43
2018-02-19T22:36:21.022Z,27.02
2018-02-19T22:38:49.366Z,27.37
2018-02-19T22:41:17.709Z,27.33
2018-02-19T22:43:46.054Z,28.10
2018-02-19T22:46:14.460Z,27.47
2018-02-19T22:48:42.806Z,25.50
2018-02-19T22:51:11.134Z,26.23
2018-02-19T22:53:39.578Z,27.23
2018-02-19T22:56:07.906Z,29.33
2018-02-19T22:58:36.308Z,26.05
2018-02-19T23:01:04.586Z,27.08
2018-02-19T23:03:32.941Z,29.90
2018-02-19T23:06:01.271Z,27.25
2018-02-19T23:08:29.613Z,30.10
2018-02-19T23:10:58.026Z,30.42
2018-02-19T23:13:26.401Z,27.25
2018-02-19T23:15:54.728Z,28.45
2018-02-19T23:18:23.073Z,30.65
2018-02-19T23:20:51.403Z,28.73
2018-02-19T23:23:19.813Z,28.77
2018-02-19T23:25:48.186Z,29.27
2018-02-19T23:28:16.567Z,30.95
2018-02-19T23:30:44.901Z,28.75
2018-02-19T23:33:13.322Z,29.02
2018-02-19T23:35:41.651Z,30.33
2018-02-19T23:38:10.074Z,28.92
2018-02-19T23:40:38.402Z,29.05
2018-02-19T23:43:06.754Z,29.30
2018-02-19T23:45:35.081Z,28.50
2018-02-19T23:48:03.402Z,27.52
2018-02-19T23:50:31.858Z,28.50
2018-02-19T23:53:00.190Z,28.15
2018-02-19T23:55:28.609Z,28.20
2018-02-19T23:57:56.990Z,27.73
